Prichard, Idaho
Current Conditions -  °F | °C
As of 12:12 AM on Friday 24 Oct 2014 (Local Time) from KMLP Reporting Station
Overcast Overcast  
Wind Chill: 25°   Ceiling: 1200
Heat Index: 33°   Visibility: 10mi
Dew Point: 31°   Wind: 9mph
Humidity: 92%   Direction: 240°WSW
Pressure: 29.99"   Gusts: 22mph
Location:  47.1697°N, 115.775°W
Report Text: KMLP 240712Z AUTO 24008G19KT 200V290 10SM SCT009 BKN012 OVC019 01/M01 A2999 RMK AO2 T00061006
Loading
Personal Weather Stations






























Interactive Weather Map
Tropical Storm Tracking
New forecast layout! Learn more

10-Day Weather Forecast

Advertisements
Track Severe Weather on mobile